sensor_id;sensor_type;location;lat;lon;timestamp;P1;durP1;ratioP1;P2;durP2;ratioP2
60859;SDS011;46694;54.382;9.708;2023-05-10T00:01:42;4.17;;;3.63;;
60859;SDS011;46694;54.382;9.708;2023-05-10T00:04:22;7.47;;;3.33;;
60859;SDS011;46694;54.382;9.708;2023-05-10T00:07:05;9.87;;;3.60;;
60859;SDS011;46694;54.382;9.708;2023-05-10T00:09:45;4.10;;;3.73;;
60859;SDS011;46694;54.382;9.708;2023-05-10T00:12:25;4.03;;;3.00;;
60859;SDS011;46694;54.382;9.708;2023-05-10T00:15:04;13.87;;;3.40;;
60859;SDS011;46694;54.382;9.708;2023-05-10T00:17:44;4.83;;;3.60;;
60859;SDS011;46694;54.382;9.708;2023-05-10T00:20:24;4.17;;;3.30;;
60859;SDS011;46694;54.382;9.708;2023-05-10T00:23:03;8.87;;;3.13;;
60859;SDS011;46694;54.382;9.708;2023-05-10T00:25:43;5.67;;;3.60;;
60859;SDS011;46694;54.382;9.708;2023-05-10T00:28:23;9.20;;;3.50;;
60859;SDS011;46694;54.382;9.708;2023-05-10T00:31:02;6.10;;;4.00;;
60859;SDS011;46694;54.382;9.708;2023-05-10T00:33:41;11.37;;;3.07;;
60859;SDS011;46694;54.382;9.708;2023-05-10T00:36:21;8.63;;;3.27;;
60859;SDS011;46694;54.382;9.708;2023-05-10T00:39:01;8.00;;;3.70;;
60859;SDS011;46694;54.382;9.708;2023-05-10T00:41:42;9.77;;;4.10;;
60859;SDS011;46694;54.382;9.708;2023-05-10T00:44:21;5.77;;;3.37;;
60859;SDS011;46694;54.382;9.708;2023-05-10T00:47:01;9.30;;;3.37;;
60859;SDS011;46694;54.382;9.708;2023-05-10T00:49:41;10.77;;;4.17;;
60859;SDS011;46694;54.382;9.708;2023-05-10T00:52:21;3.90;;;3.50;;
60859;SDS011;46694;54.382;9.708;2023-05-10T00:55:02;10.90;;;3.80;;
60859;SDS011;46694;54.382;9.708;2023-05-10T00:57:43;4.20;;;3.80;;
60859;SDS011;46694;54.382;9.708;2023-05-10T01:00:24;5.77;;;3.87;;
60859;SDS011;46694;54.382;9.708;2023-05-10T01:03:04;5.77;;;3.97;;
60859;SDS011;46694;54.382;9.708;2023-05-10T01:05:43;5.63;;;3.57;;
60859;SDS011;46694;54.382;9.708;2023-05-10T01:08:23;10.87;;;3.60;;
60859;SDS011;46694;54.382;9.708;2023-05-10T01:11:03;3.90;;;3.60;;
60859;SDS011;46694;54.382;9.708;2023-05-10T01:13:43;4.07;;;3.30;;
60859;SDS011;46694;54.382;9.708;2023-05-10T01:16:34;5.57;;;3.23;;
60859;SDS011;46694;54.382;9.708;2023-05-10T01:32:28;7.53;;;4.10;;
60859;SDS011;46694;54.382;9.708;2023-05-10T01:35:34;4.23;;;3.90;;
60859;SDS011;46694;54.382;9.708;2023-05-10T01:44:58;11.00;;;4.23;;
60859;SDS011;46694;54.382;9.708;2023-05-10T01:48:10;8.80;;;4.20;;
60859;SDS011;46694;54.382;9.708;2023-05-10T01:50:52;13.67;;;4.40;;
60859;SDS011;46694;54.382;9.708;2023-05-10T01:53:33;7.30;;;4.00;;
60859;SDS011;46694;54.382;9.708;2023-05-10T01:56:16;8.37;;;3.80;;
60859;SDS011;46694;54.382;9.708;2023-05-10T01:59:03;14.03;;;3.30;;
60859;SDS011;46694;54.382;9.708;2023-05-10T02:01:49;8.40;;;3.90;;
60859;SDS011;46694;54.382;9.708;2023-05-10T02:04:29;16.53;;;4.40;;
60859;SDS011;46694;54.382;9.708;2023-05-10T02:07:10;8.33;;;3.93;;
60859;SDS011;46694;54.382;9.708;2023-05-10T02:09:50;7.30;;;4.20;;
60859;SDS011;46694;54.382;9.708;2023-05-10T02:12:30;5.07;;;4.00;;
60859;SDS011;46694;54.382;9.708;2023-05-10T02:15:17;5.27;;;3.93;;
60859;SDS011;46694;54.382;9.708;2023-05-10T02:18:00;6.13;;;4.40;;
60859;SDS011;46694;54.382;9.708;2023-05-10T02:20:43;10.63;;;4.87;;
60859;SDS011;46694;54.382;9.708;2023-05-10T02:23:25;7.17;;;4.20;;
60859;SDS011;46694;54.382;9.708;2023-05-10T02:26:05;9.30;;;4.50;;
60859;SDS011;46694;54.382;9.708;2023-05-10T02:28:46;3.50;;;3.20;;
60859;SDS011;46694;54.382;9.708;2023-05-10T02:31:29;5.03;;;4.23;;
60859;SDS011;46694;54.382;9.708;2023-05-10T02:34:11;7.60;;;3.90;;
60859;SDS011;46694;54.382;9.708;2023-05-10T02:36:51;5.63;;;3.70;;
60859;SDS011;46694;54.382;9.708;2023-05-10T02:39:32;6.00;;;3.77;;
60859;SDS011;46694;54.382;9.708;2023-05-10T02:42:14;5.73;;;3.77;;
60859;SDS011;46694;54.382;9.708;2023-05-10T02:44:59;7.10;;;3.73;;
60859;SDS011;46694;54.382;9.708;2023-05-10T02:47:41;11.33;;;3.97;;
60859;SDS011;46694;54.382;9.708;2023-05-10T02:50:20;9.77;;;4.67;;
60859;SDS011;46694;54.382;9.708;2023-05-10T02:53:06;6.47;;;4.03;;
60859;SDS011;46694;54.382;9.708;2023-05-10T02:55:52;8.10;;;4.50;;
60859;SDS011;46694;54.382;9.708;2023-05-10T02:58:36;10.50;;;4.80;;
60859;SDS011;46694;54.382;9.708;2023-05-10T03:01:16;4.83;;;3.80;;
60859;SDS011;46694;54.382;9.708;2023-05-10T03:03:55;12.10;;;4.20;;
60859;SDS011;46694;54.382;9.708;2023-05-10T03:06:35;8.03;;;4.07;;
60859;SDS011;46694;54.382;9.708;2023-05-10T03:09:14;6.20;;;4.80;;
60859;SDS011;46694;54.382;9.708;2023-05-10T03:12:02;6.70;;;4.27;;
60859;SDS011;46694;54.382;9.708;2023-05-10T03:18:40;3.73;;;3.47;;
60859;SDS011;46694;54.382;9.708;2023-05-10T03:21:28;9.07;;;4.80;;
60859;SDS011;46694;54.382;9.708;2023-05-10T03:24:08;12.50;;;4.70;;
60859;SDS011;46694;54.382;9.708;2023-05-10T03:26:51;4.90;;;3.80;;
60859;SDS011;46694;54.382;9.708;2023-05-10T03:29:38;16.13;;;4.77;;
60859;SDS011;46694;54.382;9.708;2023-05-10T03:32:18;4.97;;;4.43;;
60859;SDS011;46694;54.382;9.708;2023-05-10T03:34:58;6.33;;;3.90;;
60859;SDS011;46694;54.382;9.708;2023-05-10T03:37:37;5.40;;;4.40;;
60859;SDS011;46694;54.382;9.708;2023-05-10T03:40:18;9.93;;;4.30;;
60859;SDS011;46694;54.382;9.708;2023-05-10T03:42:58;8.70;;;4.80;;
60859;SDS011;46694;54.382;9.708;2023-05-10T03:45:37;4.97;;;4.40;;
60859;SDS011;46694;54.382;9.708;2023-05-10T03:48:17;7.67;;;4.73;;
60859;SDS011;46694;54.382;9.708;2023-05-10T03:50:57;5.17;;;4.20;;
60859;SDS011;46694;54.382;9.708;2023-05-10T03:53:36;12.57;;;4.50;;
60859;SDS011;46694;54.382;9.708;2023-05-10T03:56:15;7.40;;;4.37;;
60859;SDS011;46694;54.382;9.708;2023-05-10T03:58:55;8.03;;;4.53;;
60859;SDS011;46694;54.382;9.708;2023-05-10T04:01:35;11.20;;;5.10;;
60859;SDS011;46694;54.382;9.708;2023-05-10T04:04:15;6.40;;;4.40;;
60859;SDS011;46694;54.382;9.708;2023-05-10T04:06:56;9.43;;;4.10;;
60859;SDS011;46694;54.382;9.708;2023-05-10T04:09:36;7.40;;;4.40;;
60859;SDS011;46694;54.382;9.708;2023-05-10T04:12:16;7.77;;;4.87;;
60859;SDS011;46694;54.382;9.708;2023-05-10T04:14:55;6.83;;;4.00;;
60859;SDS011;46694;54.382;9.708;2023-05-10T04:17:35;7.00;;;4.30;;
60859;SDS011;46694;54.382;9.708;2023-05-10T04:20:14;15.13;;;4.90;;
60859;SDS011;46694;54.382;9.708;2023-05-10T04:22:54;10.47;;;4.67;;
60859;SDS011;46694;54.382;9.708;2023-05-10T04:25:34;4.87;;;4.20;;
60859;SDS011;46694;54.382;9.708;2023-05-10T04:28:14;6.17;;;4.50;;
60859;SDS011;46694;54.382;9.708;2023-05-10T04:31:00;8.33;;;4.50;;
60859;SDS011;46694;54.382;9.708;2023-05-10T04:33:47;11.10;;;4.63;;
60859;SDS011;46694;54.382;9.708;2023-05-10T04:36:26;8.33;;;5.00;;
60859;SDS011;46694;54.382;9.708;2023-05-10T04:39:06;9.80;;;5.70;;
60859;SDS011;46694;54.382;9.708;2023-05-10T04:41:46;8.80;;;4.57;;
60859;SDS011;46694;54.382;9.708;2023-05-10T04:44:25;11.60;;;4.03;;
60859;SDS011;46694;54.382;9.708;2023-05-10T04:47:05;4.20;;;3.90;;
60859;SDS011;46694;54.382;9.708;2023-05-10T04:49:44;8.70;;;4.50;;
60859;SDS011;46694;54.382;9.708;2023-05-10T04:52:24;6.50;;;4.00;;
60859;SDS011;46694;54.382;9.708;2023-05-10T04:55:05;8.90;;;5.07;;
60859;SDS011;46694;54.382;9.708;2023-05-10T04:57:46;8.17;;;4.83;;
60859;SDS011;46694;54.382;9.708;2023-05-10T05:00:26;6.07;;;4.33;;
60859;SDS011;46694;54.382;9.708;2023-05-10T05:03:05;4.93;;;4.27;;
60859;SDS011;46694;54.382;9.708;2023-05-10T05:05:45;6.27;;;4.97;;
60859;SDS011;46694;54.382;9.708;2023-05-10T05:08:24;9.80;;;4.57;;
60859;SDS011;46694;54.382;9.708;2023-05-10T05:11:04;5.47;;;4.50;;
60859;SDS011;46694;54.382;9.708;2023-05-10T05:13:44;6.00;;;4.20;;
60859;SDS011;46694;54.382;9.708;2023-05-10T05:16:24;14.33;;;3.90;;
60859;SDS011;46694;54.382;9.708;2023-05-10T05:19:04;4.80;;;4.37;;
60859;SDS011;46694;54.382;9.708;2023-05-10T05:21:43;9.13;;;4.00;;
60859;SDS011;46694;54.382;9.708;2023-05-10T05:24:23;4.90;;;4.23;;
60859;SDS011;46694;54.382;9.708;2023-05-10T05:27:03;8.03;;;4.20;;
60859;SDS011;46694;54.382;9.708;2023-05-10T05:29:42;6.30;;;4.87;;
60859;SDS011;46694;54.382;9.708;2023-05-10T05:32:22;17.70;;;4.70;;
60859;SDS011;46694;54.382;9.708;2023-05-10T05:35:03;6.20;;;4.40;;
60859;SDS011;46694;54.382;9.708;2023-05-10T05:37:43;6.00;;;4.43;;
60859;SDS011;46694;54.382;9.708;2023-05-10T05:40:23;6.30;;;4.73;;
60859;SDS011;46694;54.382;9.708;2023-05-10T05:43:06;7.67;;;5.10;;
60859;SDS011;46694;54.382;9.708;2023-05-10T05:45:45;5.13;;;4.40;;
60859;SDS011;46694;54.382;9.708;2023-05-10T05:48:25;7.00;;;4.30;;
60859;SDS011;46694;54.382;9.708;2023-05-10T05:51:04;6.00;;;4.17;;
60859;SDS011;46694;54.382;9.708;2023-05-10T05:53:44;5.20;;;3.70;;
60859;SDS011;46694;54.382;9.708;2023-05-10T05:56:24;6.40;;;4.20;;
60859;SDS011;46694;54.382;9.708;2023-05-10T05:59:03;5.40;;;4.00;;
60859;SDS011;46694;54.382;9.708;2023-05-10T06:01:43;8.00;;;4.53;;
60859;SDS011;46694;54.382;9.708;2023-05-10T06:04:23;4.43;;;3.97;;
60859;SDS011;46694;54.382;9.708;2023-05-10T06:07:02;6.57;;;4.47;;
60859;SDS011;46694;54.382;9.708;2023-05-10T06:09:42;14.97;;;3.73;;
60859;SDS011;46694;54.382;9.708;2023-05-10T06:12:21;13.07;;;4.40;;
60859;SDS011;46694;54.382;9.708;2023-05-10T06:15:01;6.07;;;4.50;;
60859;SDS011;46694;54.382;9.708;2023-05-10T06:17:42;6.67;;;4.53;;
60859;SDS011;46694;54.382;9.708;2023-05-10T06:20:22;7.60;;;4.70;;
60859;SDS011;46694;54.382;9.708;2023-05-10T06:23:02;4.90;;;4.13;;
60859;SDS011;46694;54.382;9.708;2023-05-10T06:25:41;6.70;;;4.33;;
60859;SDS011;46694;54.382;9.708;2023-05-10T06:28:21;5.47;;;4.03;;
60859;SDS011;46694;54.382;9.708;2023-05-10T06:31:01;4.40;;;4.00;;
60859;SDS011;46694;54.382;9.708;2023-05-10T06:33:40;7.10;;;4.73;;
60859;SDS011;46694;54.382;9.708;2023-05-10T06:36:20;4.33;;;3.80;;
60859;SDS011;46694;54.382;9.708;2023-05-10T06:39:00;7.00;;;4.10;;
60859;SDS011;46694;54.382;9.708;2023-05-10T06:41:40;6.33;;;4.13;;
60859;SDS011;46694;54.382;9.708;2023-05-10T06:44:20;7.97;;;4.93;;
60859;SDS011;46694;54.382;9.708;2023-05-10T06:47:00;6.50;;;4.93;;
60859;SDS011;46694;54.382;9.708;2023-05-10T06:49:39;4.57;;;4.17;;
60859;SDS011;46694;54.382;9.708;2023-05-10T06:52:19;4.20;;;3.90;;
60859;SDS011;46694;54.382;9.708;2023-05-10T06:54:59;14.53;;;4.47;;
60859;SDS011;46694;54.382;9.708;2023-05-10T06:57:39;5.00;;;4.50;;
60859;SDS011;46694;54.382;9.708;2023-05-10T07:00:18;5.03;;;4.23;;
60859;SDS011;46694;54.382;9.708;2023-05-10T07:02:58;8.43;;;5.20;;
60859;SDS011;46694;54.382;9.708;2023-05-10T07:05:38;4.63;;;4.10;;
60859;SDS011;46694;54.382;9.708;2023-05-10T07:08:21;7.17;;;4.07;;
60859;SDS011;46694;54.382;9.708;2023-05-10T07:11:01;10.20;;;4.60;;
60859;SDS011;46694;54.382;9.708;2023-05-10T07:13:49;5.20;;;4.40;;
60859;SDS011;46694;54.382;9.708;2023-05-10T07:16:28;4.53;;;4.13;;
60859;SDS011;46694;54.382;9.708;2023-05-10T07:19:07;4.87;;;4.40;;
60859;SDS011;46694;54.382;9.708;2023-05-10T07:21:47;5.00;;;3.93;;
60859;SDS011;46694;54.382;9.708;2023-05-10T07:24:27;6.50;;;4.13;;
60859;SDS011;46694;54.382;9.708;2023-05-10T07:27:07;5.60;;;4.40;;
60859;SDS011;46694;54.382;9.708;2023-05-10T07:29:46;9.03;;;4.40;;
60859;SDS011;46694;54.382;9.708;2023-05-10T07:32:26;5.60;;;4.40;;
60859;SDS011;46694;54.382;9.708;2023-05-10T07:35:06;4.10;;;3.80;;
60859;SDS011;46694;54.382;9.708;2023-05-10T07:37:46;7.30;;;4.30;;
60859;SDS011;46694;54.382;9.708;2023-05-10T07:40:26;6.20;;;4.90;;
60859;SDS011;46694;54.382;9.708;2023-05-10T07:43:05;7.07;;;3.97;;
60859;SDS011;46694;54.382;9.708;2023-05-10T07:45:45;5.40;;;3.87;;
60859;SDS011;46694;54.382;9.708;2023-05-10T07:48:25;4.23;;;3.80;;
60859;SDS011;46694;54.382;9.708;2023-05-10T07:51:05;5.60;;;4.70;;
60859;SDS011;46694;54.382;9.708;2023-05-10T07:53:45;6.90;;;4.80;;
60859;SDS011;46694;54.382;9.708;2023-05-10T07:56:29;7.70;;;4.00;;
60859;SDS011;46694;54.382;9.708;2023-05-10T07:59:14;4.73;;;3.80;;
60859;SDS011;46694;54.382;9.708;2023-05-10T08:01:55;4.83;;;4.33;;
60859;SDS011;46694;54.382;9.708;2023-05-10T08:04:35;5.20;;;4.73;;
60859;SDS011;46694;54.382;9.708;2023-05-10T08:07:14;4.67;;;4.30;;
60859;SDS011;46694;54.382;9.708;2023-05-10T08:09:54;4.57;;;4.17;;
60859;SDS011;46694;54.382;9.708;2023-05-10T08:12:33;6.87;;;5.50;;
60859;SDS011;46694;54.382;9.708;2023-05-10T08:15:13;7.07;;;4.20;;
60859;SDS011;46694;54.382;9.708;2023-05-10T08:17:53;7.87;;;4.70;;
60859;SDS011;46694;54.382;9.708;2023-05-10T08:20:32;12.80;;;4.60;;
60859;SDS011;46694;54.382;9.708;2023-05-10T08:23:12;12.87;;;4.50;;
60859;SDS011;46694;54.382;9.708;2023-05-10T08:25:52;20.63;;;4.87;;
60859;SDS011;46694;54.382;9.708;2023-05-10T08:28:32;9.43;;;4.83;;
60859;SDS011;46694;54.382;9.708;2023-05-10T08:31:11;4.47;;;3.93;;
60859;SDS011;46694;54.382;9.708;2023-05-10T08:33:51;8.00;;;4.40;;
60859;SDS011;46694;54.382;9.708;2023-05-10T08:36:31;7.03;;;4.77;;
60859;SDS011;46694;54.382;9.708;2023-05-10T08:43:19;4.80;;;4.40;;
60859;SDS011;46694;54.382;9.708;2023-05-10T08:46:00;4.00;;;3.60;;
60859;SDS011;46694;54.382;9.708;2023-05-10T08:48:41;7.83;;;4.80;;
60859;SDS011;46694;54.382;9.708;2023-05-10T08:51:24;6.03;;;4.00;;
60859;SDS011;46694;54.382;9.708;2023-05-10T08:54:05;4.27;;;3.87;;
60859;SDS011;46694;54.382;9.708;2023-05-10T08:56:45;5.20;;;4.10;;
60859;SDS011;46694;54.382;9.708;2023-05-10T08:59:24;6.43;;;4.53;;
60859;SDS011;46694;54.382;9.708;2023-05-10T09:02:04;4.73;;;4.33;;
60859;SDS011;46694;54.382;9.708;2023-05-10T09:04:44;4.77;;;4.37;;
60859;SDS011;46694;54.382;9.708;2023-05-10T09:07:23;5.13;;;4.40;;
60859;SDS011;46694;54.382;9.708;2023-05-10T09:10:04;9.27;;;5.50;;
60859;SDS011;46694;54.382;9.708;2023-05-10T09:12:45;4.53;;;4.10;;
60859;SDS011;46694;54.382;9.708;2023-05-10T09:15:25;6.50;;;5.10;;
60859;SDS011;46694;54.382;9.708;2023-05-10T09:18:05;5.87;;;5.30;;
60859;SDS011;46694;54.382;9.708;2023-05-10T09:20:44;11.90;;;4.97;;
60859;SDS011;46694;54.382;9.708;2023-05-10T09:23:24;5.57;;;5.07;;
60859;SDS011;46694;54.382;9.708;2023-05-10T09:26:10;6.00;;;4.90;;
60859;SDS011;46694;54.382;9.708;2023-05-10T09:28:50;6.03;;;5.20;;
60859;SDS011;46694;54.382;9.708;2023-05-10T09:31:45;7.43;;;4.60;;
60859;SDS011;46694;54.382;9.708;2023-05-10T09:34:30;6.20;;;4.13;;
60859;SDS011;46694;54.382;9.708;2023-05-10T09:37:11;6.03;;;5.20;;
60859;SDS011;46694;54.382;9.708;2023-05-10T09:39:50;5.97;;;5.10;;
60859;SDS011;46694;54.382;9.708;2023-05-10T09:42:34;6.43;;;5.80;;
60859;SDS011;46694;54.382;9.708;2023-05-10T09:45:13;10.00;;;5.43;;
60859;SDS011;46694;54.382;9.708;2023-05-10T09:47:53;5.97;;;5.27;;
60859;SDS011;46694;54.382;9.708;2023-05-10T09:50:33;5.93;;;5.33;;
60859;SDS011;46694;54.382;9.708;2023-05-10T09:53:14;6.53;;;4.97;;
60859;SDS011;46694;54.382;9.708;2023-05-10T09:55:54;7.13;;;4.77;;
60859;SDS011;46694;54.382;9.708;2023-05-10T09:58:36;17.33;;;6.77;;
60859;SDS011;46694;54.382;9.708;2023-05-10T10:01:19;6.53;;;5.53;;
60859;SDS011;46694;54.382;9.708;2023-05-10T10:03:58;9.13;;;5.97;;
60859;SDS011;46694;54.382;9.708;2023-05-10T10:06:42;7.27;;;4.47;;
60859;SDS011;46694;54.382;9.708;2023-05-10T10:09:22;6.03;;;5.43;;
60859;SDS011;46694;54.382;9.708;2023-05-10T10:12:02;5.23;;;4.80;;
60859;SDS011;46694;54.382;9.708;2023-05-10T10:14:43;6.00;;;5.50;;
60859;SDS011;46694;54.382;9.708;2023-05-10T10:17:25;12.63;;;5.20;;
60859;SDS011;46694;54.382;9.708;2023-05-10T10:20:07;6.70;;;5.33;;
60859;SDS011;46694;54.382;9.708;2023-05-10T10:22:47;6.67;;;4.90;;
60859;SDS011;46694;54.382;9.708;2023-05-10T10:25:27;6.07;;;5.10;;
60859;SDS011;46694;54.382;9.708;2023-05-10T10:28:18;9.87;;;5.60;;
60859;SDS011;46694;54.382;9.708;2023-05-10T10:31:02;12.87;;;;;
60859;SDS011;46694;54.382;9.708;2023-05-10T10:34:26;5.33;;;4.83;;
60859;SDS011;46694;54.382;9.708;2023-05-10T10:37:07;7.73;;;5.57;;
60859;SDS011;46694;54.382;9.708;2023-05-10T10:39:50;5.80;;;5.30;;
60859;SDS011;46694;54.382;9.708;2023-05-10T10:42:46;6.40;;;5.80;;
60859;SDS011;46694;54.382;9.708;2023-05-10T10:45:26;6.97;;;5.37;;
60859;SDS011;46694;54.382;9.708;2023-05-10T10:48:21;5.40;;;4.90;;
60859;SDS011;46694;54.382;9.708;2023-05-10T10:51:01;5.60;;;4.90;;
60859;SDS011;46694;54.382;9.708;2023-05-10T10:53:41;6.70;;;5.50;;
60859;SDS011;46694;54.382;9.708;2023-05-10T10:56:22;9.30;;;6.20;;
60859;SDS011;46694;54.382;9.708;2023-05-10T10:59:03;7.73;;;5.30;;
60859;SDS011;46694;54.382;9.708;2023-05-10T11:01:42;5.90;;;5.07;;
60859;SDS011;46694;54.382;9.708;2023-05-10T11:04:22;6.67;;;5.83;;
60859;SDS011;46694;54.382;9.708;2023-05-10T11:07:16;8.73;;;5.53;;
60859;SDS011;46694;54.382;9.708;2023-05-10T11:09:56;6.50;;;4.67;;
60859;SDS011;46694;54.382;9.708;2023-05-10T11:12:58;5.43;;;4.93;;
60859;SDS011;46694;54.382;9.708;2023-05-10T11:15:43;7.43;;;5.50;;
60859;SDS011;46694;54.382;9.708;2023-05-10T11:18:29;6.30;;;5.70;;
60859;SDS011;46694;54.382;9.708;2023-05-10T11:21:09;9.80;;;6.10;;
60859;SDS011;46694;54.382;9.708;2023-05-10T11:23:50;14.03;;;6.23;;
60859;SDS011;46694;54.382;9.708;2023-05-10T11:26:35;12.53;;;7.27;;
60859;SDS011;46694;54.382;9.708;2023-05-10T11:29:15;10.10;;;6.07;;
60859;SDS011;46694;54.382;9.708;2023-05-10T11:31:58;7.10;;;6.40;;
60859;SDS011;46694;54.382;9.708;2023-05-10T11:34:38;11.00;;;5.70;;
60859;SDS011;46694;54.382;9.708;2023-05-10T11:37:18;8.30;;;7.50;;
60859;SDS011;46694;54.382;9.708;2023-05-10T11:39:58;11.07;;;7.20;;
60859;SDS011;46694;54.382;9.708;2023-05-10T11:42:38;13.73;;;9.10;;
60859;SDS011;46694;54.382;9.708;2023-05-10T11:45:18;35.67;;;13.70;;
60859;SDS011;46694;54.382;9.708;2023-05-10T11:47:58;29.63;;;13.00;;
60859;SDS011;46694;54.382;9.708;2023-05-10T11:50:38;34.00;;;14.63;;
60859;SDS011;46694;54.382;9.708;2023-05-10T11:53:19;17.57;;;9.33;;
60859;SDS011;46694;54.382;9.708;2023-05-10T11:56:03;9.93;;;8.30;;
60859;SDS011;46694;54.382;9.708;2023-05-10T11:58:44;13.57;;;9.97;;
60859;SDS011;46694;54.382;9.708;2023-05-10T12:01:26;12.87;;;10.40;;
60859;SDS011;46694;54.382;9.708;2023-05-10T12:04:07;14.67;;;8.77;;
60859;SDS011;46694;54.382;9.708;2023-05-10T12:06:46;13.87;;;8.90;;
60859;SDS011;46694;54.382;9.708;2023-05-10T12:09:26;15.70;;;10.23;;
60859;SDS011;46694;54.382;9.708;2023-05-10T12:12:05;13.27;;;11.53;;
60859;SDS011;46694;54.382;9.708;2023-05-10T12:14:48;13.63;;;10.03;;
60859;SDS011;46694;54.382;9.708;2023-05-10T12:17:29;12.03;;;9.17;;
60859;SDS011;46694;54.382;9.708;2023-05-10T12:22:59;12.27;;;10.20;;
60859;SDS011;46694;54.382;9.708;2023-05-10T12:25:41;11.67;;;9.60;;
60859;SDS011;46694;54.382;9.708;2023-05-10T12:28:22;12.13;;;10.10;;
60859;SDS011;46694;54.382;9.708;2023-05-10T12:31:01;13.23;;;10.97;;
60859;SDS011;46694;54.382;9.708;2023-05-10T12:33:42;11.50;;;10.30;;
60859;SDS011;46694;54.382;9.708;2023-05-10T12:36:23;12.17;;;10.50;;
60859;SDS011;46694;54.382;9.708;2023-05-10T12:39:04;15.93;;;12.03;;
60859;SDS011;46694;54.382;9.708;2023-05-10T12:41:43;11.00;;;9.90;;
60859;SDS011;46694;54.382;9.708;2023-05-10T12:44:23;18.60;;;10.77;;
60859;SDS011;46694;54.382;9.708;2023-05-10T12:47:02;18.60;;;11.40;;
60859;SDS011;46694;54.382;9.708;2023-05-10T12:49:42;13.60;;;10.87;;
60859;SDS011;46694;54.382;9.708;2023-05-10T12:52:22;22.90;;;10.80;;
60859;SDS011;46694;54.382;9.708;2023-05-10T12:55:03;13.40;;;12.00;;
60859;SDS011;46694;54.382;9.708;2023-05-10T12:57:43;12.30;;;11.00;;
60859;SDS011;46694;54.382;9.708;2023-05-10T13:00:22;12.90;;;11.27;;
60859;SDS011;46694;54.382;9.708;2023-05-10T13:03:02;14.43;;;11.50;;
60859;SDS011;46694;54.382;9.708;2023-05-10T13:05:43;19.73;;;11.63;;
60859;SDS011;46694;54.382;9.708;2023-05-10T13:08:23;13.27;;;11.87;;
60859;SDS011;46694;54.382;9.708;2023-05-10T13:11:03;15.23;;;11.67;;
60859;SDS011;46694;54.382;9.708;2023-05-10T13:13:43;16.20;;;10.80;;
60859;SDS011;46694;54.382;9.708;2023-05-10T13:16:22;18.87;;;12.20;;
60859;SDS011;46694;54.382;9.708;2023-05-10T13:19:02;13.23;;;11.90;;
60859;SDS011;46694;54.382;9.708;2023-05-10T13:21:41;15.73;;;13.20;;
60859;SDS011;46694;54.382;9.708;2023-05-10T13:24:21;13.70;;;12.27;;
60859;SDS011;46694;54.382;9.708;2023-05-10T13:27:01;14.17;;;12.87;;
60859;SDS011;46694;54.382;9.708;2023-05-10T13:29:41;16.83;;;12.90;;
60859;SDS011;46694;54.382;9.708;2023-05-10T13:32:21;13.77;;;12.40;;
60859;SDS011;46694;54.382;9.708;2023-05-10T13:35:00;15.03;;;13.43;;
60859;SDS011;46694;54.382;9.708;2023-05-10T13:37:41;18.13;;;12.50;;
60859;SDS011;46694;54.382;9.708;2023-05-10T13:40:21;15.53;;;12.53;;
60859;SDS011;46694;54.382;9.708;2023-05-10T13:43:00;15.67;;;13.20;;
60859;SDS011;46694;54.382;9.708;2023-05-10T13:45:40;16.50;;;13.30;;
60859;SDS011;46694;54.382;9.708;2023-05-10T13:48:20;13.53;;;12.23;;
60859;SDS011;46694;54.382;9.708;2023-05-10T13:50:59;14.80;;;13.00;;
60859;SDS011;46694;54.382;9.708;2023-05-10T13:53:39;21.90;;;12.80;;
60859;SDS011;46694;54.382;9.708;2023-05-10T13:56:18;14.83;;;11.90;;
60859;SDS011;46694;54.382;9.708;2023-05-10T13:58:58;24.33;;;12.83;;
60859;SDS011;46694;54.382;9.708;2023-05-10T14:01:37;14.60;;;12.97;;
60859;SDS011;46694;54.382;9.708;2023-05-10T14:04:17;17.10;;;13.03;;
60859;SDS011;46694;54.382;9.708;2023-05-10T14:06:56;13.43;;;11.83;;
60859;SDS011;46694;54.382;9.708;2023-05-10T14:09:36;18.50;;;15.10;;
60859;SDS011;46694;54.382;9.708;2023-05-10T14:12:16;15.23;;;13.63;;
60859;SDS011;46694;54.382;9.708;2023-05-10T14:14:55;16.47;;;14.77;;
60859;SDS011;46694;54.382;9.708;2023-05-10T14:17:36;16.13;;;13.00;;
60859;SDS011;46694;54.382;9.708;2023-05-10T14:20:16;16.43;;;14.83;;
60859;SDS011;46694;54.382;9.708;2023-05-10T14:22:56;20.40;;;14.17;;
60859;SDS011;46694;54.382;9.708;2023-05-10T14:25:36;18.00;;;13.83;;
60859;SDS011;46694;54.382;9.708;2023-05-10T14:28:16;18.03;;;13.47;;
60859;SDS011;46694;54.382;9.708;2023-05-10T14:30:57;15.33;;;13.70;;
60859;SDS011;46694;54.382;9.708;2023-05-10T14:33:36;16.27;;;14.57;;
60859;SDS011;46694;54.382;9.708;2023-05-10T14:36:17;14.67;;;13.27;;
60859;SDS011;46694;54.382;9.708;2023-05-10T14:38:56;16.17;;;14.40;;
60859;SDS011;46694;54.382;9.708;2023-05-10T14:41:36;17.10;;;13.70;;
60859;SDS011;46694;54.382;9.708;2023-05-10T14:44:15;21.27;;;13.23;;
60859;SDS011;46694;54.382;9.708;2023-05-10T14:46:55;12.47;;;11.17;;
60859;SDS011;46694;54.382;9.708;2023-05-10T14:49:35;13.17;;;12.00;;
60859;SDS011;46694;54.382;9.708;2023-05-10T14:52:14;16.03;;;10.30;;
60859;SDS011;46694;54.382;9.708;2023-05-10T14:54:54;12.03;;;10.83;;
60859;SDS011;46694;54.382;9.708;2023-05-10T14:57:33;11.60;;;10.40;;
60859;SDS011;46694;54.382;9.708;2023-05-10T15:00:13;11.23;;;9.50;;
60859;SDS011;46694;54.382;9.708;2023-05-10T15:02:54;10.03;;;8.90;;
60859;SDS011;46694;54.382;9.708;2023-05-10T15:05:33;8.63;;;7.83;;
60859;SDS011;46694;54.382;9.708;2023-05-10T15:08:13;10.97;;;8.27;;
60859;SDS011;46694;54.382;9.708;2023-05-10T15:10:52;9.60;;;7.90;;
60859;SDS011;46694;54.382;9.708;2023-05-10T15:13:34;7.80;;;6.77;;
60859;SDS011;46694;54.382;9.708;2023-05-10T15:16:13;6.80;;;6.23;;
60859;SDS011;46694;54.382;9.708;2023-05-10T15:18:53;6.03;;;5.53;;
60859;SDS011;46694;54.382;9.708;2023-05-10T15:21:33;10.00;;;6.40;;
60859;SDS011;46694;54.382;9.708;2023-05-10T15:24:17;12.20;;;6.00;;
60859;SDS011;46694;54.382;9.708;2023-05-10T15:26:57;5.37;;;4.97;;
60859;SDS011;46694;54.382;9.708;2023-05-10T15:29:36;11.43;;;5.47;;
60859;SDS011;46694;54.382;9.708;2023-05-10T15:32:16;4.33;;;3.93;;
60859;SDS011;46694;54.382;9.708;2023-05-10T15:34:55;4.50;;;4.10;;
60859;SDS011;46694;54.382;9.708;2023-05-10T15:37:35;4.83;;;3.13;;
60859;SDS011;46694;54.382;9.708;2023-05-10T15:40:15;4.43;;;3.83;;
60859;SDS011;46694;54.382;9.708;2023-05-10T15:42:55;4.43;;;3.40;;
60859;SDS011;46694;54.382;9.708;2023-05-10T15:45:34;2.90;;;2.77;;
60859;SDS011;46694;54.382;9.708;2023-05-10T15:48:14;3.03;;;2.77;;
60859;SDS011;46694;54.382;9.708;2023-05-10T15:50:54;2.77;;;2.57;;
60859;SDS011;46694;54.382;9.708;2023-05-10T15:53:34;4.03;;;2.60;;
60859;SDS011;46694;54.382;9.708;2023-05-10T15:56:14;2.07;;;1.97;;
60859;SDS011;46694;54.382;9.708;2023-05-10T15:58:54;3.77;;;2.67;;
60859;SDS011;46694;54.382;9.708;2023-05-10T16:01:33;2.60;;;2.50;;
60859;SDS011;46694;54.382;9.708;2023-05-10T16:04:13;2.13;;;2.03;;
60859;SDS011;46694;54.382;9.708;2023-05-10T16:06:53;2.03;;;1.93;;
60859;SDS011;46694;54.382;9.708;2023-05-10T16:09:32;2.87;;;2.70;;
60859;SDS011;46694;54.382;9.708;2023-05-10T16:12:12;2.60;;;2.50;;
60859;SDS011;46694;54.382;9.708;2023-05-10T16:14:54;2.53;;;2.03;;
60859;SDS011;46694;54.382;9.708;2023-05-10T16:17:34;2.30;;;2.20;;
60859;SDS011;46694;54.382;9.708;2023-05-10T16:20:15;2.30;;;2.20;;
60859;SDS011;46694;54.382;9.708;2023-05-10T16:22:54;1.97;;;1.87;;
60859;SDS011;46694;54.382;9.708;2023-05-10T16:25:34;1.67;;;1.57;;
60859;SDS011;46694;54.382;9.708;2023-05-10T16:28:13;1.90;;;1.80;;
60859;SDS011;46694;54.382;9.708;2023-05-10T16:30:53;1.87;;;1.73;;
60859;SDS011;46694;54.382;9.708;2023-05-10T16:33:32;1.57;;;1.47;;